createdAt,value
2022-12-09T00:01:10.772Z,-1.10
2022-12-09T00:03:38.077Z,-1.90
2022-12-09T00:06:13.233Z,-1.90
2022-12-09T00:08:40.022Z,-1.80
2022-12-09T00:11:07.426Z,-1.90
2022-12-09T00:13:37.431Z,-1.20
2022-12-09T00:16:11.510Z,-1.90
2022-12-09T00:18:47.873Z,-2.50
2022-12-09T00:21:15.240Z,-2.00
2022-12-09T00:23:44.299Z,-2.00
2022-12-09T00:26:11.453Z,-2.00
2022-12-09T00:28:38.604Z,-1.70
2022-12-09T00:31:05.733Z,-1.50
2022-12-09T00:33:33.598Z,-2.00
2022-12-09T00:36:04.825Z,-1.50
2022-12-09T00:38:31.745Z,-2.00
2022-12-09T00:41:01.964Z,-2.10
2022-12-09T00:43:28.872Z,-2.10
2022-12-09T00:45:55.936Z,-2.10
2022-12-09T00:48:23.041Z,-1.40
2022-12-09T00:50:50.061Z,-2.10
2022-12-09T00:53:16.958Z,-1.50
2022-12-09T00:55:44.436Z,-2.00
2022-12-09T00:58:11.892Z,-2.00
2022-12-09T01:00:38.812Z,-1.90
2022-12-09T01:03:06.002Z,-1.60
2022-12-09T01:05:40.833Z,-1.00
2022-12-09T01:08:11.067Z,-1.70
2022-12-09T01:10:38.206Z,-1.80
2022-12-09T01:13:05.092Z,-1.60
2022-12-09T01:15:32.192Z,-1.50
2022-12-09T01:17:59.442Z,-1.40
2022-12-09T01:20:26.841Z,-1.40
2022-12-09T01:22:53.723Z,-1.80
2022-12-09T01:25:20.493Z,-1.30
2022-12-09T01:27:47.243Z,-1.30
2022-12-09T01:30:16.551Z,-0.50
2022-12-09T01:32:45.609Z,-1.30
2022-12-09T01:35:12.838Z,-0.60
2022-12-09T01:37:39.643Z,-1.30
2022-12-09T01:40:07.963Z,-1.20
2022-12-09T01:42:35.573Z,-1.30
2022-12-09T01:45:40.811Z,-1.10
2022-12-09T01:48:11.319Z,-1.40
2022-12-09T01:50:39.096Z,-1.10
2022-12-09T01:53:06.146Z,-1.00
2022-12-09T01:55:33.008Z,-1.20
2022-12-09T01:58:00.173Z,-0.90
2022-12-09T02:00:27.014Z,-1.40
2022-12-09T02:02:53.981Z,-1.20
2022-12-09T02:05:20.980Z,-1.50
2022-12-09T02:07:48.282Z,-0.90
2022-12-09T02:10:16.193Z,-1.50
2022-12-09T02:12:46.163Z,-1.50
2022-12-09T02:15:23.709Z,-1.50
2022-12-09T02:18:13.691Z,-1.60
2022-12-09T02:20:46.013Z,-1.60
2022-12-09T02:23:14.547Z,-1.60
2022-12-09T02:25:48.700Z,-1.60
2022-12-09T02:28:25.357Z,-1.70
2022-12-09T02:30:56.018Z,-1.70
2022-12-09T02:33:22.985Z,-1.70
2022-12-09T02:35:54.982Z,-1.70
2022-12-09T02:38:23.403Z,-1.80
2022-12-09T02:40:54.475Z,-1.00
2022-12-09T02:43:22.886Z,-1.80
2022-12-09T02:45:49.877Z,-1.80
2022-12-09T02:48:16.916Z,-1.80
2022-12-09T02:51:13.555Z,-1.90
2022-12-09T02:53:40.805Z,-1.80
2022-12-09T02:56:12.687Z,-1.90
2022-12-09T02:58:39.739Z,-1.90
2022-12-09T03:01:07.296Z,-1.90
2022-12-09T03:03:34.332Z,-1.40
2022-12-09T03:06:03.984Z,-1.10
2022-12-09T03:08:46.650Z,-1.90
2022-12-09T03:11:16.105Z,-1.90
2022-12-09T03:13:59.406Z,-1.80
2022-12-09T03:16:41.881Z,-1.80
2022-12-09T03:19:10.685Z,-1.80
2022-12-09T03:21:39.501Z,-0.90
2022-12-09T03:24:07.901Z,-1.30
2022-12-09T03:26:35.084Z,-1.60
2022-12-09T03:29:02.504Z,-1.50
2022-12-09T03:31:30.024Z,-1.50
2022-12-09T03:33:58.007Z,-0.80
2022-12-09T03:36:24.972Z,-1.20
2022-12-09T03:38:51.984Z,-1.30
2022-12-09T03:41:26.406Z,-1.30
2022-12-09T03:43:59.976Z,-1.30
2022-12-09T03:46:27.536Z,-1.20
2022-12-09T03:48:54.538Z,-1.20
2022-12-09T03:51:30.867Z,-1.00
2022-12-09T03:54:01.420Z,-0.20
2022-12-09T03:56:28.894Z,-1.10
2022-12-09T03:58:56.065Z,-0.80
2022-12-09T04:01:23.658Z,-0.20
2022-12-09T04:03:52.095Z,-1.00
2022-12-09T04:06:19.135Z,-0.90
2022-12-09T04:08:46.377Z,-0.90
2022-12-09T04:11:13.223Z,-0.90
2022-12-09T04:13:40.055Z,-0.80
2022-12-09T04:16:07.256Z,-0.20
2022-12-09T04:18:34.490Z,-0.70
2022-12-09T04:21:06.250Z,-0.70
2022-12-09T04:23:35.660Z,-0.70
2022-12-09T04:26:06.524Z,-0.70
2022-12-09T04:28:33.607Z,-0.60
2022-12-09T04:31:00.951Z,-0.60
2022-12-09T04:33:27.888Z,-0.60
2022-12-09T04:35:54.685Z,-0.60
2022-12-09T04:38:21.438Z,-0.50
2022-12-09T04:40:48.398Z,-0.50
2022-12-09T04:43:15.219Z,-0.50
2022-12-09T04:45:42.164Z,-0.40
2022-12-09T04:48:09.308Z,-0.30
2022-12-09T04:50:36.446Z,-0.40
2022-12-09T04:53:03.780Z,-0.30
2022-12-09T04:55:30.568Z,-0.60
2022-12-09T04:57:58.967Z,0.00
2022-12-09T05:00:25.908Z,0.10
2022-12-09T05:02:52.792Z,-0.20
2022-12-09T05:05:22.810Z,-0.20
2022-12-09T05:07:50.023Z,0.00
2022-12-09T05:10:17.372Z,-0.20
2022-12-09T05:12:44.306Z,-0.10
2022-12-09T05:15:11.553Z,-0.10
2022-12-09T05:17:38.520Z,-0.10
2022-12-09T05:20:06.708Z,-0.20
2022-12-09T05:22:34.150Z,-0.60
2022-12-09T05:25:01.171Z,-0.10
2022-12-09T05:27:29.361Z,0.00
2022-12-09T05:29:56.495Z,0.00
2022-12-09T05:32:23.811Z,0.00
2022-12-09T05:34:51.182Z,0.10
2022-12-09T05:37:18.290Z,0.00
2022-12-09T05:39:45.305Z,0.00
2022-12-09T05:42:12.208Z,0.00
2022-12-09T05:44:39.114Z,0.80
2022-12-09T05:47:06.057Z,0.00
2022-12-09T05:49:33.329Z,0.20
2022-12-09T05:52:00.431Z,0.00
2022-12-09T05:54:29.698Z,0.50
2022-12-09T05:56:58.216Z,0.90
2022-12-09T05:59:25.534Z,0.80
2022-12-09T06:01:55.051Z,0.10
2022-12-09T06:04:22.329Z,0.10
2022-12-09T06:06:49.961Z,0.10
2022-12-09T06:09:17.377Z,0.10
2022-12-09T06:11:44.379Z,0.40
2022-12-09T06:14:11.525Z,0.40
2022-12-09T06:16:38.866Z,1.00
2022-12-09T06:19:05.942Z,1.00
2022-12-09T06:21:33.076Z,1.00
2022-12-09T06:23:59.991Z,1.00
2022-12-09T06:26:27.790Z,0.20
2022-12-09T06:28:55.019Z,0.60
2022-12-09T06:31:22.163Z,0.90
2022-12-09T06:33:58.401Z,0.10
2022-12-09T06:36:26.927Z,0.10
2022-12-09T06:38:54.635Z,-0.10
2022-12-09T06:41:21.961Z,0.20
2022-12-09T06:43:48.865Z,-0.40
2022-12-09T06:46:18.812Z,0.30
2022-12-09T06:48:46.206Z,1.00
2022-12-09T06:51:13.609Z,0.50
2022-12-09T06:53:40.916Z,0.20
2022-12-09T06:56:12.163Z,0.20
2022-12-09T06:58:43.781Z,0.20
2022-12-09T07:01:14.872Z,0.30
2022-12-09T07:03:42.716Z,0.30
2022-12-09T07:06:25.957Z,0.70
2022-12-09T07:08:53.465Z,0.30
2022-12-09T07:11:20.973Z,0.30
2022-12-09T07:13:50.938Z,0.40
2022-12-09T07:16:17.846Z,0.40
2022-12-09T07:18:44.903Z,0.50
2022-12-09T07:21:13.291Z,0.40
2022-12-09T07:23:40.324Z,0.60
2022-12-09T07:26:07.539Z,0.50
2022-12-09T07:28:35.174Z,0.20
2022-12-09T07:31:02.044Z,0.50
2022-12-09T07:33:29.550Z,1.20
2022-12-09T07:36:00.170Z,0.60
2022-12-09T07:38:27.769Z,0.60
2022-12-09T07:40:54.932Z,0.80
2022-12-09T07:43:22.442Z,0.60
2022-12-09T07:45:49.591Z,0.60
2022-12-09T07:48:16.983Z,0.70
2022-12-09T07:50:44.146Z,0.70
2022-12-09T07:53:11.176Z,0.70
2022-12-09T07:55:38.615Z,0.80
2022-12-09T07:58:05.896Z,0.80
2022-12-09T08:00:32.712Z,1.00
2022-12-09T08:03:00.012Z,0.80
2022-12-09T08:05:27.438Z,1.40
2022-12-09T08:07:54.899Z,1.10
2022-12-09T08:10:22.826Z,1.20
2022-12-09T08:12:50.599Z,1.20
2022-12-09T08:15:19.643Z,0.90
2022-12-09T08:17:46.610Z,1.90
2022-12-09T08:20:14.452Z,1.90
2022-12-09T08:22:42.132Z,1.10
2022-12-09T08:25:09.888Z,2.00
2022-12-09T08:27:37.415Z,1.20
2022-12-09T08:30:05.695Z,0.90
2022-12-09T08:32:33.482Z,1.20
2022-12-09T08:35:03.732Z,1.90
2022-12-09T08:37:34.519Z,1.30
2022-12-09T08:40:01.538Z,1.40
2022-12-09T08:42:30.479Z,1.30
2022-12-09T08:45:01.999Z,1.50
2022-12-09T08:47:30.398Z,1.40
2022-12-09T08:49:58.578Z,1.70
2022-12-09T08:52:26.137Z,2.10
2022-12-09T08:54:53.608Z,1.40
2022-12-09T08:57:32.562Z,1.60
2022-12-09T08:59:59.824Z,1.50
2022-12-09T09:02:27.199Z,1.50
2022-12-09T09:04:57.582Z,2.30
2022-12-09T09:07:24.779Z,1.50
2022-12-09T09:09:52.296Z,1.60
2022-12-09T09:12:21.492Z,1.60
2022-12-09T09:14:53.456Z,1.60
2022-12-09T09:17:21.197Z,1.90
2022-12-09T09:19:48.645Z,1.90
2022-12-09T09:22:15.834Z,2.30
2022-12-09T09:24:43.013Z,2.10
2022-12-09T09:27:10.319Z,2.50
2022-12-09T09:29:37.651Z,2.40
2022-12-09T09:32:04.936Z,2.20
2022-12-09T09:34:34.832Z,1.90
2022-12-09T09:37:02.349Z,2.80
2022-12-09T09:39:29.415Z,2.80
2022-12-09T09:42:08.162Z,2.30
2022-12-09T09:44:47.008Z,2.00
2022-12-09T09:47:20.831Z,2.10
2022-12-09T09:49:50.143Z,2.10
2022-12-09T09:52:35.630Z,2.10
2022-12-09T09:55:11.824Z,2.20
2022-12-09T09:57:41.152Z,2.20
2022-12-09T10:00:33.682Z,2.20
2022-12-09T10:03:18.799Z,2.20
2022-12-09T10:05:56.236Z,2.20
2022-12-09T10:08:42.588Z,2.10
2022-12-09T10:11:15.250Z,2.20
2022-12-09T10:13:54.959Z,2.30
2022-12-09T10:16:22.191Z,2.30
2022-12-09T10:18:55.257Z,2.10
2022-12-09T10:21:22.630Z,2.30
2022-12-09T10:23:49.838Z,2.00
2022-12-09T10:26:22.912Z,2.40
2022-12-09T10:28:54.318Z,2.40
2022-12-09T10:31:21.344Z,2.70
2022-12-09T10:33:56.661Z,2.70
2022-12-09T10:36:33.762Z,2.60
2022-12-09T10:39:02.496Z,2.60
2022-12-09T10:42:01.400Z,2.50
2022-12-09T10:44:29.696Z,2.60
2022-12-09T10:46:58.134Z,2.70
2022-12-09T10:49:25.452Z,3.40
2022-12-09T10:52:09.268Z,2.80
2022-12-09T10:54:47.775Z,2.90
2022-12-09T10:57:15.238Z,3.00
2022-12-09T10:59:56.113Z,3.00
2022-12-09T11:02:23.826Z,3.00
2022-12-09T11:04:51.393Z,3.50
2022-12-09T11:07:20.765Z,3.10
2022-12-09T11:09:49.307Z,3.10
2022-12-09T11:12:22.751Z,2.80
2022-12-09T11:15:06.002Z,3.10
2022-12-09T11:17:36.161Z,3.20
2022-12-09T11:20:08.821Z,3.30
2022-12-09T11:22:41.539Z,3.30
2022-12-09T11:25:12.896Z,3.40
2022-12-09T11:27:42.728Z,3.50
2022-12-09T11:30:16.573Z,3.60
2022-12-09T11:32:55.438Z,3.60
2022-12-09T11:35:31.151Z,3.70
2022-12-09T11:37:59.280Z,3.90
2022-12-09T11:40:29.408Z,3.90
2022-12-09T11:42:56.637Z,3.80
2022-12-09T11:45:27.657Z,4.20
2022-12-09T11:48:25.794Z,4.20
2022-12-09T11:50:43.801Z,4.40
2022-12-09T11:53:10.825Z,4.40
2022-12-09T11:55:38.361Z,4.40
2022-12-09T11:58:06.856Z,4.40
2022-12-09T12:00:42.094Z,4.50
2022-12-09T12:03:19.530Z,4.60
2022-12-09T12:05:48.615Z,4.60
2022-12-09T12:08:26.883Z,4.70
2022-12-09T12:10:58.140Z,4.70
2022-12-09T12:13:29.371Z,4.70
2022-12-09T12:15:59.451Z,4.80
2022-12-09T12:18:29.585Z,4.70
2022-12-09T12:21:11.735Z,4.90
2022-12-09T12:23:50.297Z,4.60
2022-12-09T12:26:38.167Z,4.30
2022-12-09T12:29:23.112Z,4.50
2022-12-09T12:31:50.128Z,4.50
2022-12-09T12:34:24.976Z,4.50
2022-12-09T12:37:09.289Z,4.40
2022-12-09T12:39:41.103Z,4.50
2022-12-09T12:42:27.116Z,4.50
2022-12-09T12:45:31.876Z,4.50
2022-12-09T12:48:16.465Z,4.50
2022-12-09T12:50:55.847Z,4.50
2022-12-09T12:53:35.696Z,4.60
2022-12-09T12:56:03.942Z,4.60
2022-12-09T12:58:39.999Z,4.70
2022-12-09T13:01:09.327Z,4.60
2022-12-09T13:03:44.266Z,5.00
2022-12-09T13:06:12.623Z,4.70
2022-12-09T13:08:48.087Z,4.70
2022-12-09T13:11:19.635Z,4.80
2022-12-09T13:13:48.601Z,4.80
2022-12-09T13:16:16.934Z,5.10
2022-12-09T13:18:43.852Z,4.80
2022-12-09T13:21:10.820Z,5.00
2022-12-09T13:23:52.952Z,4.80
2022-12-09T13:26:38.201Z,4.90
2022-12-09T13:29:04.919Z,5.00
2022-12-09T13:31:32.502Z,5.00
2022-12-09T13:34:03.285Z,5.10
2022-12-09T13:36:45.136Z,5.20
2022-12-09T13:39:12.777Z,5.20
2022-12-09T13:41:58.837Z,5.20
2022-12-09T13:44:33.209Z,5.20
2022-12-09T13:47:20.268Z,5.10
2022-12-09T13:50:07.775Z,5.10
2022-12-09T13:52:54.286Z,5.00
2022-12-09T13:55:38.807Z,4.90
2022-12-09T13:58:08.673Z,4.80
2022-12-09T14:00:35.568Z,4.80
2022-12-09T14:03:04.486Z,4.70
2022-12-09T14:05:31.833Z,4.60
2022-12-09T14:08:03.528Z,4.60
2022-12-09T14:10:43.712Z,4.50
2022-12-09T14:13:26.207Z,4.50
2022-12-09T14:16:08.311Z,4.40
2022-12-09T14:18:35.510Z,4.40
2022-12-09T14:21:17.748Z,4.70
2022-12-09T14:24:05.552Z,4.30
2022-12-09T14:26:36.162Z,4.30
2022-12-09T14:29:03.236Z,4.20
2022-12-09T14:31:43.716Z,4.30
2022-12-09T14:34:36.815Z,4.20
2022-12-09T14:37:18.857Z,4.10
2022-12-09T14:39:50.310Z,4.00
2022-12-09T14:42:26.420Z,4.10
2022-12-09T14:45:02.943Z,4.00
2022-12-09T14:47:31.013Z,4.00
2022-12-09T14:50:05.740Z,3.90
2022-12-09T14:52:33.206Z,4.20
2022-12-09T14:55:00.868Z,3.90
2022-12-09T14:57:29.402Z,4.40
2022-12-09T14:59:56.848Z,3.80
2022-12-09T15:02:37.076Z,3.80
2022-12-09T15:07:45.430Z,3.70
2022-12-09T15:10:22.870Z,4.20
2022-12-09T15:12:56.582Z,3.60
2022-12-09T15:15:28.572Z,3.00
2022-12-09T15:18:02.613Z,3.50
2022-12-09T15:20:32.842Z,3.50
2022-12-09T15:23:20.257Z,3.40
2022-12-09T15:25:47.858Z,3.70
2022-12-09T15:28:15.962Z,3.30
2022-12-09T15:30:44.241Z,4.10
2022-12-09T15:33:15.032Z,3.30
2022-12-09T15:35:42.387Z,3.20
2022-12-09T15:38:09.383Z,3.10
2022-12-09T15:40:36.685Z,3.50
2022-12-09T15:43:05.639Z,3.90
2022-12-09T15:45:35.460Z,3.40
2022-12-09T15:48:03.879Z,2.90
2022-12-09T15:50:32.351Z,2.80
2022-12-09T15:55:50.832Z,2.70
2022-12-09T15:58:20.849Z,2.60
2022-12-09T16:00:51.686Z,2.60
2022-12-09T16:06:19.405Z,2.50
2022-12-09T16:11:52.665Z,2.30
2022-12-09T16:14:20.221Z,2.30
2022-12-09T16:17:08.599Z,2.40
2022-12-09T16:22:18.138Z,2.10
2022-12-09T16:25:14.330Z,2.00
2022-12-09T16:27:44.365Z,2.00
2022-12-09T16:32:59.067Z,1.90
2022-12-09T16:35:26.379Z,1.90
2022-12-09T16:37:56.562Z,1.50
2022-12-09T16:40:26.630Z,1.80
2022-12-09T16:42:54.227Z,1.70
2022-12-09T16:45:30.934Z,1.70
2022-12-09T16:47:58.172Z,1.60
2022-12-09T16:50:29.033Z,1.60
2022-12-09T16:52:56.194Z,1.50
2022-12-09T16:55:23.943Z,1.80
2022-12-09T16:57:50.843Z,1.50
2022-12-09T17:00:18.597Z,2.00
2022-12-09T17:02:46.465Z,0.80
2022-12-09T17:05:13.223Z,1.30
2022-12-09T17:07:40.122Z,1.40
2022-12-09T17:10:07.208Z,1.30
2022-12-09T17:12:34.040Z,1.30
2022-12-09T17:15:01.000Z,1.20
2022-12-09T17:17:28.155Z,1.60
2022-12-09T17:19:55.091Z,1.90
2022-12-09T17:22:21.836Z,1.90
2022-12-09T17:24:49.075Z,1.20
2022-12-09T17:27:16.006Z,1.20
2022-12-09T17:29:48.297Z,0.90
2022-12-09T17:32:15.108Z,1.10
2022-12-09T17:34:41.898Z,1.10
2022-12-09T17:37:09.233Z,1.90
2022-12-09T17:39:36.182Z,0.90
2022-12-09T17:42:03.257Z,1.00
2022-12-09T17:44:31.309Z,1.00
2022-12-09T17:46:58.348Z,0.90
2022-12-09T17:49:25.171Z,1.20
2022-12-09T17:51:52.322Z,1.30
2022-12-09T17:54:19.050Z,0.90
2022-12-09T17:56:46.763Z,0.90
2022-12-09T17:59:14.119Z,1.20
2022-12-09T18:04:31.140Z,1.80
2022-12-09T18:06:58.275Z,0.90
2022-12-09T18:09:32.576Z,0.90
2022-12-09T18:12:08.363Z,0.90
2022-12-09T18:14:42.753Z,0.90
2022-12-09T18:17:14.584Z,1.40
2022-12-09T18:20:03.007Z,0.60
2022-12-09T18:22:32.970Z,0.60
2022-12-09T18:24:59.779Z,0.70
2022-12-09T18:27:26.567Z,0.70
2022-12-09T18:29:53.540Z,0.70
2022-12-09T18:32:20.828Z,0.70
2022-12-09T18:34:47.680Z,0.60
2022-12-09T18:37:15.304Z,0.60
2022-12-09T18:39:42.034Z,0.60
2022-12-09T18:42:09.305Z,0.50
2022-12-09T18:44:36.251Z,1.10
2022-12-09T18:47:02.975Z,1.00
2022-12-09T18:49:30.186Z,0.50
2022-12-09T18:51:57.129Z,0.50
2022-12-09T18:54:25.213Z,0.60
2022-12-09T18:56:52.370Z,0.50
2022-12-09T18:59:21.986Z,0.50
2022-12-09T19:01:49.184Z,0.50
2022-12-09T19:04:20.307Z,0.50
2022-12-09T19:06:47.614Z,0.50
2022-12-09T19:09:15.460Z,0.20
2022-12-09T19:11:42.630Z,1.10
2022-12-09T19:14:09.676Z,1.20
2022-12-09T19:16:38.522Z,0.40
2022-12-09T19:19:10.656Z,0.40
2022-12-09T19:21:40.730Z,0.40
2022-12-09T19:24:08.238Z,0.10
2022-12-09T19:26:35.400Z,0.40
2022-12-09T19:29:04.258Z,1.00
2022-12-09T19:31:31.980Z,0.30
2022-12-09T19:34:11.274Z,0.30
2022-12-09T19:36:48.526Z,0.30
2022-12-09T19:39:15.619Z,0.20
2022-12-09T19:41:43.332Z,0.20
2022-12-09T19:44:21.649Z,0.90
2022-12-09T19:46:58.419Z,0.10
2022-12-09T19:49:25.388Z,0.10
2022-12-09T19:51:52.364Z,0.10
2022-12-09T19:54:23.766Z,0.00
2022-12-09T19:56:53.908Z,0.00
2022-12-09T19:59:20.662Z,0.00
2022-12-09T20:01:50.146Z,0.20
2022-12-09T20:04:47.118Z,0.00
2022-12-09T20:07:08.168Z,-0.10
2022-12-09T20:09:35.495Z,-0.10
2022-12-09T20:14:46.369Z,-0.10
2022-12-09T20:17:17.511Z,0.70
2022-12-09T20:19:44.385Z,-0.10
2022-12-09T20:22:13.084Z,-0.10
2022-12-09T20:24:43.432Z,-0.20
2022-12-09T20:27:10.545Z,-0.10
2022-12-09T20:29:38.433Z,-0.20
2022-12-09T20:32:05.895Z,0.20
2022-12-09T20:34:32.771Z,-0.20
2022-12-09T20:36:59.784Z,0.10
2022-12-09T20:39:26.560Z,-0.70
2022-12-09T20:41:53.404Z,0.30
2022-12-09T20:44:20.309Z,-0.20
2022-12-09T20:46:48.215Z,-0.20
2022-12-09T20:49:14.969Z,-0.10
2022-12-09T20:51:41.839Z,-0.20
2022-12-09T20:54:09.977Z,-0.20
2022-12-09T20:56:37.204Z,-0.20
2022-12-09T20:59:04.743Z,0.60
2022-12-09T21:01:32.420Z,-0.30
2022-12-09T21:04:00.771Z,0.30
2022-12-09T21:06:30.018Z,0.10
2022-12-09T21:08:59.382Z,-0.30
2022-12-09T21:11:26.399Z,-0.30
2022-12-09T21:13:54.190Z,0.50
2022-12-09T21:16:24.428Z,-0.30
2022-12-09T21:18:52.353Z,-0.20
2022-12-09T21:21:19.549Z,-0.30
2022-12-09T21:23:46.648Z,-0.20
2022-12-09T21:26:14.126Z,-0.10
2022-12-09T21:28:42.460Z,0.10
2022-12-09T21:31:09.997Z,-0.20
2022-12-09T21:33:37.124Z,-0.20
2022-12-09T21:36:13.935Z,0.40
2022-12-09T21:38:40.844Z,-0.20
2022-12-09T21:41:08.923Z,-0.20
2022-12-09T21:43:35.950Z,-0.20
2022-12-09T21:46:03.254Z,-0.30
2022-12-09T21:48:30.250Z,-0.20
2022-12-09T21:50:57.432Z,-0.20
2022-12-09T21:53:24.193Z,-0.20
2022-12-09T21:55:51.353Z,-0.20
2022-12-09T21:58:18.413Z,0.60
2022-12-09T22:00:45.337Z,-0.20
2022-12-09T22:03:12.580Z,0.50
2022-12-09T22:05:39.882Z,-0.20
2022-12-09T22:08:10.868Z,-0.20
2022-12-09T22:10:37.915Z,0.00
2022-12-09T22:13:05.160Z,0.60
2022-12-09T22:15:32.182Z,-0.30
2022-12-09T22:17:59.176Z,-0.30
2022-12-09T22:21:07.756Z,0.20
2022-12-09T22:23:15.106Z,-0.40
2022-12-09T22:25:42.144Z,-0.40
2022-12-09T22:28:09.169Z,-0.40
2022-12-09T22:30:36.461Z,-0.50
2022-12-09T22:33:03.365Z,-0.10
2022-12-09T22:35:30.648Z,-0.50
2022-12-09T22:37:59.359Z,-0.50
2022-12-09T22:40:26.426Z,-0.60
2022-12-09T22:42:53.379Z,-0.10
2022-12-09T22:45:22.977Z,-0.60
2022-12-09T22:47:49.904Z,0.20
2022-12-09T22:50:21.391Z,0.00
2022-12-09T22:52:49.445Z,-0.60
2022-12-09T22:55:16.266Z,-0.60
2022-12-09T22:57:43.665Z,-0.60
2022-12-09T23:00:11.658Z,-0.60
2022-12-09T23:02:39.218Z,-0.60
2022-12-09T23:05:07.251Z,0.10
2022-12-09T23:07:34.882Z,-0.60
2022-12-09T23:10:02.230Z,-0.70
2022-12-09T23:12:28.990Z,-0.60
2022-12-09T23:14:59.452Z,-0.70
2022-12-09T23:18:15.552Z,-0.70
2022-12-09T23:20:40.335Z,-0.70
2022-12-09T23:23:07.071Z,-0.60
2022-12-09T23:25:33.919Z,-0.60
2022-12-09T23:28:00.788Z,-0.60
2022-12-09T23:30:27.528Z,-0.60
2022-12-09T23:32:54.227Z,-0.60
2022-12-09T23:35:21.289Z,-0.20
2022-12-09T23:37:48.177Z,-0.70
2022-12-09T23:40:15.074Z,-0.60
2022-12-09T23:42:41.895Z,-0.60
2022-12-09T23:45:08.923Z,-0.50
2022-12-09T23:47:35.770Z,-0.60
2022-12-09T23:50:13.693Z,-0.60
2022-12-09T23:52:40.830Z,-0.60
2022-12-09T23:55:07.787Z,-0.60
2022-12-09T23:57:34.562Z,-0.60
